createdAt,value
2022-09-27T00:01:12.612Z,94.65
2022-09-27T00:03:44.436Z,94.92
2022-09-27T00:06:16.056Z,95.43
2022-09-27T00:08:44.433Z,95.41
2022-09-27T00:11:20.144Z,96.08
2022-09-27T00:13:48.595Z,96.27
2022-09-27T00:16:17.201Z,96.36
2022-09-27T00:18:45.557Z,95.73
2022-09-27T00:21:16.067Z,95.60
2022-09-27T00:23:44.630Z,95.73
2022-09-27T00:26:14.360Z,95.44
2022-09-27T00:28:43.029Z,95.44
2022-09-27T00:31:19.513Z,95.23
2022-09-27T00:33:49.758Z,95.27
2022-09-27T00:36:19.914Z,95.42
2022-09-27T00:38:48.457Z,95.38
2022-09-27T00:41:19.410Z,95.49
2022-09-27T00:43:50.793Z,95.86
2022-09-27T00:46:27.361Z,96.11
2022-09-27T00:49:05.718Z,96.10
2022-09-27T00:51:36.955Z,96.42
2022-09-27T00:54:08.516Z,96.92
2022-09-27T00:56:37.456Z,96.72
2022-09-27T00:59:12.476Z,96.01
2022-09-27T01:01:41.231Z,95.92
2022-09-27T01:04:12.691Z,95.97
2022-09-27T01:06:41.719Z,96.23
2022-09-27T01:09:11.685Z,96.25
2022-09-27T01:11:44.765Z,96.58
2022-09-27T01:14:37.328Z,96.25
2022-09-27T01:17:17.186Z,96.99
2022-09-27T01:20:15.292Z,97.53
2022-09-27T01:22:59.143Z,97.23
2022-09-27T01:25:48.652Z,98.02
2022-09-27T01:28:22.368Z,97.90
2022-09-27T01:30:57.589Z,97.30
2022-09-27T01:33:38.558Z,97.38
2022-09-27T01:36:17.688Z,97.44
2022-09-27T01:38:59.252Z,97.58
2022-09-27T01:41:38.740Z,97.48
2022-09-27T01:44:33.058Z,96.91
2022-09-27T01:47:14.934Z,96.83
2022-09-27T01:49:53.812Z,96.99
2022-09-27T01:52:28.564Z,97.16
2022-09-27T01:55:01.083Z,97.00
2022-09-27T01:57:54.357Z,96.83
2022-09-27T02:00:25.749Z,97.15
2022-09-27T02:02:59.457Z,97.70
2022-09-27T02:05:42.660Z,98.26
2022-09-27T02:08:45.172Z,98.51
2022-09-27T02:11:22.074Z,98.65
2022-09-27T02:14:06.306Z,98.53
2022-09-27T02:16:50.126Z,99.08
2022-09-27T02:19:31.362Z,99.40
2022-09-27T02:22:12.600Z,99.25
2022-09-27T02:24:45.505Z,99.56
2022-09-27T02:27:22.815Z,99.33
2022-09-27T02:29:58.580Z,98.93
2022-09-27T02:32:27.625Z,98.31
2022-09-27T02:35:00.540Z,98.91
2022-09-27T02:37:29.831Z,98.71
2022-09-27T02:39:58.556Z,98.07
2022-09-27T02:42:27.918Z,98.28
2022-09-27T02:44:57.138Z,97.92
2022-09-27T02:47:40.682Z,97.33
2022-09-27T02:50:25.540Z,96.45
2022-09-27T02:53:27.977Z,96.49
2022-09-27T02:56:13.656Z,96.74
2022-09-27T02:59:06.824Z,96.62
2022-09-27T03:02:13.847Z,95.82
2022-09-27T03:05:05.606Z,95.97
2022-09-27T03:07:35.398Z,95.53
2022-09-27T03:10:04.974Z,95.49
2022-09-27T03:12:34.348Z,94.83
2022-09-27T03:15:03.381Z,94.50
2022-09-27T03:18:00.622Z,95.01
2022-09-27T03:20:47.941Z,95.34
2022-09-27T03:23:20.892Z,95.93
2022-09-27T03:25:51.072Z,96.32
2022-09-27T03:28:19.810Z,96.70
2022-09-27T03:30:48.961Z,96.72
2022-09-27T03:33:52.500Z,96.22
2022-09-27T03:36:22.399Z,96.63
2022-09-27T03:38:50.689Z,96.13
2022-09-27T03:41:19.845Z,95.85
2022-09-27T03:43:48.704Z,96.71
2022-09-27T03:46:17.665Z,96.94
2022-09-27T03:48:46.323Z,96.48
2022-09-27T03:51:14.968Z,95.52
2022-09-27T03:53:43.492Z,95.90
2022-09-27T03:56:12.041Z,96.01
2022-09-27T03:58:40.641Z,96.37
2022-09-27T04:01:09.241Z,96.36
2022-09-27T04:03:37.888Z,96.44
2022-09-27T04:06:09.336Z,96.31
2022-09-27T04:08:43.060Z,96.05
2022-09-27T04:11:13.308Z,96.31
2022-09-27T04:13:43.845Z,96.49
2022-09-27T04:16:12.340Z,96.70
2022-09-27T04:19:00.900Z,97.06
2022-09-27T04:21:43.346Z,97.04
2022-09-27T04:24:12.147Z,97.04
2022-09-27T04:26:42.717Z,96.98
2022-09-27T04:29:14.429Z,97.08
2022-09-27T04:31:48.485Z,96.87
2022-09-27T04:34:45.280Z,96.98
2022-09-27T04:37:15.116Z,96.30
2022-09-27T04:39:48.390Z,96.42
2022-09-27T04:42:17.371Z,96.19
2022-09-27T04:44:47.153Z,96.38
2022-09-27T04:47:16.744Z,96.13
2022-09-27T04:49:45.045Z,96.13
2022-09-27T04:52:13.906Z,95.86
2022-09-27T04:54:42.265Z,95.59
2022-09-27T04:57:13.820Z,96.32
2022-09-27T04:59:42.445Z,96.24
2022-09-27T05:02:11.134Z,95.95
2022-09-27T05:04:51.333Z,95.66
2022-09-27T05:07:21.142Z,96.03
2022-09-27T05:09:54.389Z,96.31
2022-09-27T05:12:26.102Z,96.36
2022-09-27T05:14:59.308Z,96.28
2022-09-27T05:17:46.197Z,95.86
2022-09-27T05:20:41.386Z,95.78
2022-09-27T05:23:15.090Z,95.63
2022-09-27T05:25:43.397Z,96.24
2022-09-27T05:28:12.285Z,96.36
2022-09-27T05:30:40.856Z,96.43
2022-09-27T05:33:12.752Z,96.37
2022-09-27T05:36:08.566Z,96.41
2022-09-27T05:38:37.035Z,96.65
2022-09-27T05:41:06.825Z,97.22
2022-09-27T05:43:36.518Z,97.09
2022-09-27T05:46:05.315Z,96.69
2022-09-27T05:48:34.295Z,96.65
2022-09-27T05:51:07.527Z,96.26
2022-09-27T05:53:38.173Z,95.91
2022-09-27T05:56:09.024Z,95.57
2022-09-27T05:59:03.305Z,95.13
2022-09-27T06:01:40.621Z,94.74
2022-09-27T06:04:37.028Z,94.08
2022-09-27T06:07:25.605Z,93.90
2022-09-27T06:09:54.166Z,93.96
2022-09-27T06:12:22.434Z,93.61
2022-09-27T06:14:50.967Z,93.32
2022-09-27T06:17:35.028Z,93.85
2022-09-27T06:20:09.239Z,93.14
2022-09-27T06:22:38.035Z,93.69
2022-09-27T06:25:08.997Z,94.30
2022-09-27T06:27:46.823Z,93.68
2022-09-27T06:30:24.655Z,93.61
2022-09-27T06:32:58.109Z,93.95
2022-09-27T06:35:35.766Z,93.63
2022-09-27T06:38:06.496Z,93.59
2022-09-27T06:40:34.944Z,93.53
2022-09-27T06:43:21.282Z,92.83
2022-09-27T06:46:04.997Z,93.52
2022-09-27T06:48:57.016Z,93.49
2022-09-27T06:51:25.864Z,93.28
2022-09-27T06:53:55.294Z,93.49
2022-09-27T06:56:23.670Z,93.14
2022-09-27T06:59:11.335Z,93.20
2022-09-27T07:01:46.149Z,92.66
2022-09-27T07:04:33.651Z,93.07
2022-09-27T07:07:28.488Z,93.12
2022-09-27T07:09:56.803Z,93.28
2022-09-27T07:12:28.452Z,93.31
2022-09-27T07:14:56.843Z,93.10
2022-09-27T07:17:27.149Z,92.43
2022-09-27T07:19:56.563Z,92.40
2022-09-27T07:22:26.308Z,92.53
2022-09-27T07:24:58.700Z,92.24
2022-09-27T07:27:28.095Z,91.90
2022-09-27T07:29:57.108Z,91.51
2022-09-27T07:32:27.544Z,91.40
2022-09-27T07:34:55.972Z,90.50
2022-09-27T07:37:24.920Z,90.46
2022-09-27T07:39:53.514Z,90.15
2022-09-27T07:42:22.572Z,90.34
2022-09-27T07:44:53.500Z,90.27
2022-09-27T07:47:31.347Z,90.07
2022-09-27T07:50:12.849Z,90.32
2022-09-27T07:53:04.921Z,90.15
2022-09-27T07:55:53.136Z,89.72
2022-09-27T07:58:25.460Z,88.95
2022-09-27T08:00:59.956Z,88.78
2022-09-27T08:03:28.772Z,88.80
2022-09-27T08:05:57.257Z,88.34
2022-09-27T08:08:26.030Z,88.26
2022-09-27T08:10:55.095Z,87.81
2022-09-27T08:13:23.539Z,87.50
2022-09-27T08:15:53.873Z,87.15
2022-09-27T08:18:24.110Z,86.83
2022-09-27T08:20:57.718Z,85.70
2022-09-27T08:23:33.582Z,83.52
2022-09-27T08:26:15.449Z,82.60
2022-09-27T08:28:52.709Z,82.47
2022-09-27T08:31:25.656Z,82.98
2022-09-27T08:33:57.346Z,83.02
2022-09-27T08:36:25.947Z,82.98
2022-09-27T08:38:58.378Z,82.86
2022-09-27T08:41:38.633Z,83.05
2022-09-27T08:44:19.361Z,83.39
2022-09-27T08:47:11.558Z,84.46
2022-09-27T08:49:45.744Z,84.33
2022-09-27T08:52:20.891Z,83.88
2022-09-27T08:54:50.921Z,83.22
2022-09-27T08:57:22.333Z,83.35
2022-09-27T09:00:00.527Z,82.98
2022-09-27T09:02:29.193Z,82.58
2022-09-27T09:05:03.218Z,82.31
2022-09-27T09:07:43.016Z,81.74
2022-09-27T09:10:40.253Z,80.78
2022-09-27T09:13:20.023Z,81.23
2022-09-27T09:16:02.266Z,80.77
2022-09-27T09:18:48.291Z,80.43
2022-09-27T09:21:27.307Z,80.66
2022-09-27T09:24:08.328Z,80.79
2022-09-27T09:26:44.964Z,80.26
2022-09-27T09:29:29.731Z,79.63
2022-09-27T09:32:07.583Z,79.27
2022-09-27T09:34:41.652Z,78.66
2022-09-27T09:37:16.796Z,78.54
2022-09-27T09:39:50.684Z,78.02
2022-09-27T09:42:26.954Z,78.07
2022-09-27T09:45:02.226Z,77.98
2022-09-27T09:47:37.442Z,77.83
2022-09-27T09:50:17.912Z,77.32
2022-09-27T09:52:51.061Z,76.60
2022-09-27T09:55:22.466Z,76.07
2022-09-27T09:58:01.212Z,75.87
2022-09-27T10:00:34.126Z,75.53
2022-09-27T10:03:04.566Z,75.47
2022-09-27T10:05:34.298Z,75.02
2022-09-27T10:08:16.813Z,74.99
2022-09-27T10:10:46.106Z,75.17
2022-09-27T10:13:35.975Z,74.82
2022-09-27T10:16:08.863Z,75.04
2022-09-27T10:18:40.811Z,74.98
2022-09-27T10:21:15.480Z,74.88
2022-09-27T10:24:06.679Z,74.50
2022-09-27T10:26:59.207Z,73.91
2022-09-27T10:29:37.238Z,74.51
2022-09-27T10:32:21.745Z,74.81
2022-09-27T10:34:50.885Z,74.91
2022-09-27T10:37:21.555Z,75.70
2022-09-27T10:40:00.929Z,75.63
2022-09-27T10:42:34.307Z,76.28
2022-09-27T10:45:26.696Z,76.53
2022-09-27T10:48:01.051Z,76.63
2022-09-27T10:50:59.304Z,77.12
2022-09-27T10:53:47.126Z,77.79
2022-09-27T10:56:24.254Z,77.74
2022-09-27T10:58:54.469Z,78.53
2022-09-27T11:01:23.886Z,80.07
2022-09-27T11:04:23.038Z,80.65
2022-09-27T11:06:51.606Z,80.85
2022-09-27T11:09:25.625Z,81.28
2022-09-27T11:12:10.485Z,82.53
2022-09-27T11:14:41.166Z,82.62
2022-09-27T11:17:17.671Z,82.90
2022-09-27T11:20:21.204Z,83.50
2022-09-27T11:23:22.608Z,84.34
2022-09-27T11:26:05.394Z,84.75
2022-09-27T11:28:38.665Z,84.53
2022-09-27T11:31:16.345Z,84.37
2022-09-27T11:34:08.268Z,85.31
2022-09-27T11:36:54.546Z,84.58
2022-09-27T11:39:35.561Z,84.42
2022-09-27T11:42:24.327Z,84.29
2022-09-27T11:45:34.348Z,83.98
2022-09-27T11:48:12.129Z,83.78
2022-09-27T11:50:57.156Z,83.19
2022-09-27T11:53:48.089Z,83.10
2022-09-27T11:56:28.901Z,82.63
2022-09-27T11:59:31.804Z,82.50
2022-09-27T12:02:15.101Z,81.90
2022-09-27T12:05:06.595Z,82.54
2022-09-27T12:07:43.391Z,82.65
2022-09-27T12:10:16.893Z,83.43
2022-09-27T12:12:51.085Z,83.28
2022-09-27T12:15:22.228Z,82.75
2022-09-27T12:17:54.749Z,82.43
2022-09-27T12:20:27.615Z,81.84
2022-09-27T12:23:00.986Z,80.99
2022-09-27T12:25:52.538Z,81.04
2022-09-27T12:28:34.020Z,81.04
2022-09-27T12:31:27.936Z,81.41
2022-09-27T12:34:06.669Z,82.40
2022-09-27T12:36:43.170Z,82.92
2022-09-27T12:39:17.327Z,82.64
2022-09-27T12:41:52.780Z,82.20
2022-09-27T12:44:37.393Z,82.96
2022-09-27T12:47:13.921Z,83.19
2022-09-27T12:49:50.636Z,83.61
2022-09-27T12:52:24.746Z,82.88
2022-09-27T12:55:25.830Z,82.28
2022-09-27T12:58:16.586Z,82.98
2022-09-27T13:00:57.782Z,82.92
2022-09-27T13:03:43.702Z,82.43
2022-09-27T13:06:40.625Z,82.30
2022-09-27T13:09:27.640Z,82.01
2022-09-27T13:12:06.390Z,82.04
2022-09-27T13:14:40.864Z,81.68
2022-09-27T13:17:33.329Z,81.22
2022-09-27T13:20:43.628Z,81.23
2022-09-27T13:24:01.460Z,82.19
2022-09-27T13:26:52.854Z,81.85
2022-09-27T13:29:32.425Z,80.98
2022-09-27T13:32:31.601Z,81.29
2022-09-27T13:35:20.425Z,81.55
2022-09-27T13:37:58.260Z,82.08
2022-09-27T13:40:39.679Z,81.87
2022-09-27T13:43:48.059Z,81.62
2022-09-27T13:46:33.133Z,81.23
2022-09-27T13:49:14.436Z,81.53
2022-09-27T13:52:19.857Z,82.35
2022-09-27T13:54:51.947Z,82.29
2022-09-27T13:57:45.537Z,82.46
2022-09-27T14:00:20.865Z,82.31
2022-09-27T14:03:00.573Z,82.10
2022-09-27T14:05:34.798Z,82.36
2022-09-27T14:08:04.916Z,82.67
2022-09-27T14:10:35.862Z,83.35
2022-09-27T14:13:06.352Z,83.30
2022-09-27T14:15:38.867Z,83.19
2022-09-27T14:18:11.765Z,83.05
2022-09-27T14:20:44.126Z,83.00
2022-09-27T14:23:24.354Z,83.15
2022-09-27T14:25:55.877Z,83.09
2022-09-27T14:28:26.682Z,82.62
2022-09-27T14:31:25.610Z,83.38
2022-09-27T14:34:16.241Z,83.43
2022-09-27T14:37:07.738Z,83.28
2022-09-27T14:39:58.369Z,83.55
2022-09-27T14:42:35.929Z,85.56
2022-09-27T14:45:18.839Z,86.69
2022-09-27T14:47:48.670Z,83.49
2022-09-27T14:50:23.692Z,84.22
2022-09-27T14:52:55.531Z,84.10
2022-09-27T14:55:26.950Z,84.56
2022-09-27T14:57:57.644Z,84.07
2022-09-27T15:00:31.576Z,84.27
2022-09-27T15:03:03.427Z,84.92
2022-09-27T15:05:34.182Z,84.56
2022-09-27T15:08:06.633Z,84.21
2022-09-27T15:10:36.659Z,84.44
2022-09-27T15:13:06.201Z,84.22
2022-09-27T15:15:38.900Z,83.88
2022-09-27T15:18:30.881Z,83.82
2022-09-27T15:20:59.414Z,83.77
2022-09-27T15:23:30.589Z,84.25
2022-09-27T15:26:06.457Z,84.31
2022-09-27T15:28:37.557Z,85.10
2022-09-27T15:31:07.230Z,84.75
2022-09-27T15:33:36.329Z,85.08
2022-09-27T15:36:08.129Z,85.41
2022-09-27T15:38:39.953Z,85.44
2022-09-27T15:41:12.149Z,85.68
2022-09-27T15:43:44.748Z,85.38
2022-09-27T15:46:35.890Z,85.46
2022-09-27T15:49:26.133Z,85.92
2022-09-27T15:51:56.043Z,85.78
2022-09-27T15:54:26.789Z,85.67
2022-09-27T15:56:57.593Z,86.15
2022-09-27T15:59:28.438Z,85.49
2022-09-27T16:02:01.915Z,85.72
2022-09-27T16:04:32.726Z,85.59
2022-09-27T16:07:04.123Z,85.66
2022-09-27T16:09:32.612Z,85.73
2022-09-27T16:12:01.501Z,85.61
2022-09-27T16:14:29.845Z,85.62
2022-09-27T16:16:59.303Z,85.86
2022-09-27T16:19:27.587Z,86.21
2022-09-27T16:21:56.037Z,86.43
2022-09-27T16:24:27.189Z,86.90
2022-09-27T16:26:55.420Z,87.15
2022-09-27T16:29:24.042Z,86.79
2022-09-27T16:31:53.326Z,87.50
2022-09-27T16:34:21.875Z,87.62
2022-09-27T16:36:50.688Z,88.00
2022-09-27T16:39:18.985Z,87.22
2022-09-27T16:41:47.705Z,87.27
2022-09-27T16:44:17.112Z,87.79
2022-09-27T16:46:45.993Z,87.98
2022-09-27T16:49:29.128Z,87.85
2022-09-27T16:52:00.754Z,87.68
2022-09-27T16:54:29.766Z,87.54
2022-09-27T16:56:59.078Z,87.70
2022-09-27T16:59:27.775Z,86.73
2022-09-27T17:01:57.158Z,83.05
2022-09-27T17:04:27.063Z,82.67
2022-09-27T17:06:56.630Z,81.65
2022-09-27T17:09:24.972Z,81.67
2022-09-27T17:11:54.829Z,81.78
2022-09-27T17:14:23.229Z,81.92
2022-09-27T17:16:51.986Z,82.89
2022-09-27T17:19:21.263Z,83.10
2022-09-27T17:21:49.989Z,84.35
2022-09-27T17:24:18.818Z,83.70
2022-09-27T17:26:46.957Z,84.50
2022-09-27T17:29:15.521Z,84.44
2022-09-27T17:31:44.023Z,85.37
2022-09-27T17:34:13.924Z,84.67
2022-09-27T17:36:47.745Z,84.62
2022-09-27T17:39:18.062Z,85.01
2022-09-27T17:41:47.692Z,84.85
2022-09-27T17:44:18.066Z,85.04
2022-09-27T17:47:07.432Z,85.26
2022-09-27T17:49:54.546Z,85.08
2022-09-27T17:52:24.601Z,85.57
2022-09-27T17:54:54.986Z,86.10
2022-09-27T17:57:23.239Z,85.93
2022-09-27T17:59:52.872Z,86.55
2022-09-27T18:02:21.386Z,87.03
2022-09-27T18:04:50.025Z,87.42
2022-09-27T18:07:19.041Z,87.55
2022-09-27T18:09:47.542Z,87.24
2022-09-27T18:12:16.245Z,87.56
2022-09-27T18:14:45.257Z,87.51
2022-09-27T18:17:13.769Z,87.52
2022-09-27T18:19:42.292Z,87.65
2022-09-27T18:22:10.561Z,87.23
2022-09-27T18:24:38.911Z,87.26
2022-09-27T18:27:07.123Z,87.49
2022-09-27T18:29:35.440Z,87.23
2022-09-27T18:32:03.858Z,86.93
2022-09-27T18:34:32.289Z,87.41
2022-09-27T18:37:00.465Z,87.77
2022-09-27T18:39:28.658Z,88.05
2022-09-27T18:41:57.635Z,88.26
2022-09-27T18:44:27.090Z,87.93
2022-09-27T18:46:57.481Z,87.94
2022-09-27T18:49:30.602Z,87.85
2022-09-27T18:52:02.531Z,87.92
2022-09-27T18:54:31.491Z,87.87
2022-09-27T18:56:59.898Z,88.44
2022-09-27T18:59:29.341Z,88.69
2022-09-27T19:01:58.364Z,88.49
2022-09-27T19:04:26.971Z,89.10
2022-09-27T19:06:58.187Z,88.97
2022-09-27T19:09:28.267Z,89.35
2022-09-27T19:11:56.938Z,89.82
2022-09-27T19:14:27.858Z,89.60
2022-09-27T19:16:56.240Z,89.85
2022-09-27T19:19:24.630Z,90.02
2022-09-27T19:21:53.450Z,89.74
2022-09-27T19:24:22.145Z,89.98
2022-09-27T19:26:52.949Z,89.86
2022-09-27T19:29:21.754Z,89.57
2022-09-27T19:31:50.829Z,89.71
2022-09-27T19:34:19.413Z,90.15
2022-09-27T19:36:47.987Z,89.91
2022-09-27T19:39:17.359Z,89.79
2022-09-27T19:41:46.133Z,90.11
2022-09-27T19:44:14.551Z,90.08
2022-09-27T19:46:44.799Z,89.56
2022-09-27T19:49:13.816Z,89.69
2022-09-27T19:51:42.593Z,90.69
2022-09-27T19:54:12.370Z,90.58
2022-09-27T19:56:41.148Z,89.94
2022-09-27T19:59:10.670Z,90.21
2022-09-27T20:01:40.586Z,90.86
2022-09-27T20:04:11.550Z,90.65
2022-09-27T20:06:40.090Z,90.86
2022-09-27T20:09:09.180Z,90.44
2022-09-27T20:11:37.301Z,90.18
2022-09-27T20:14:05.464Z,90.20
2022-09-27T20:16:36.129Z,89.95
2022-09-27T20:19:08.894Z,89.85
2022-09-27T20:21:38.037Z,90.17
2022-09-27T20:24:06.662Z,90.44
2022-09-27T20:26:35.826Z,90.42
2022-09-27T20:29:06.326Z,90.29
2022-09-27T20:31:36.576Z,90.35
2022-09-27T20:34:07.184Z,90.08
2022-09-27T20:36:37.196Z,89.61
2022-09-27T20:39:07.431Z,89.16
2022-09-27T20:41:37.751Z,89.70
2022-09-27T20:44:08.035Z,89.52
2022-09-27T20:46:38.851Z,89.69
2022-09-27T20:49:08.729Z,89.59
2022-09-27T20:51:39.372Z,89.78
2022-09-27T20:54:09.663Z,89.93
2022-09-27T20:56:40.083Z,89.42
2022-09-27T20:59:15.008Z,89.40
2022-09-27T21:01:44.448Z,89.02
2022-09-27T21:04:14.723Z,89.30
2022-09-27T21:06:43.533Z,89.33
2022-09-27T21:09:19.282Z,89.27
2022-09-27T21:11:48.303Z,89.55
2022-09-27T21:14:16.727Z,89.30
2022-09-27T21:16:45.106Z,89.09
2022-09-27T21:19:13.985Z,89.03
2022-09-27T21:21:42.340Z,88.67
2022-09-27T21:24:11.167Z,88.86
2022-09-27T21:26:39.696Z,89.06
2022-09-27T21:29:10.899Z,88.96
2022-09-27T21:31:39.645Z,89.72
2022-09-27T21:34:07.992Z,90.15
2022-09-27T21:36:38.159Z,89.86
2022-09-27T21:39:08.068Z,89.06
2022-09-27T21:41:38.139Z,88.75
2022-09-27T21:44:07.633Z,89.22
2022-09-27T21:46:40.026Z,89.31
2022-09-27T21:49:08.881Z,89.30
2022-09-27T21:51:39.383Z,89.46
2022-09-27T21:54:10.717Z,89.08
2022-09-27T21:56:40.651Z,89.16
2022-09-27T21:59:11.526Z,90.30
2022-09-27T22:01:42.145Z,90.25
2022-09-27T22:04:10.400Z,90.88
2022-09-27T22:06:39.897Z,90.04
2022-09-27T22:09:11.608Z,89.99
2022-09-27T22:11:43.185Z,89.97
2022-09-27T22:14:11.971Z,89.54
2022-09-27T22:16:40.251Z,89.67
2022-09-27T22:19:10.575Z,89.38
2022-09-27T22:21:39.715Z,90.14
2022-09-27T22:24:11.525Z,90.29
2022-09-27T22:26:41.712Z,89.80
2022-09-27T22:29:10.413Z,89.18
2022-09-27T22:31:38.732Z,88.90
2022-09-27T22:34:15.764Z,88.69
2022-09-27T22:36:44.408Z,88.55
2022-09-27T22:39:12.658Z,88.59
2022-09-27T22:41:40.917Z,88.48
2022-09-27T22:44:09.153Z,88.77
2022-09-27T22:46:37.461Z,89.07
2022-09-27T22:49:05.833Z,88.93
2022-09-27T22:51:34.498Z,89.49
2022-09-27T22:54:03.265Z,88.98
2022-09-27T22:56:31.533Z,89.14
2022-09-27T22:58:59.717Z,90.28
2022-09-27T23:01:27.954Z,90.08
2022-09-27T23:03:56.496Z,89.00
2022-09-27T23:06:24.648Z,88.51
2022-09-27T23:08:54.211Z,88.67
2022-09-27T23:11:23.644Z,88.43
2022-09-27T23:13:52.273Z,88.11
2022-09-27T23:16:23.633Z,87.68
2022-09-27T23:18:54.138Z,87.16
2022-09-27T23:21:25.077Z,86.90
2022-09-27T23:23:55.375Z,86.79
2022-09-27T23:26:25.737Z,86.71
2022-09-27T23:28:54.946Z,86.92
2022-09-27T23:31:24.845Z,86.72
2022-09-27T23:33:53.768Z,87.36
2022-09-27T23:36:25.460Z,87.09
2022-09-27T23:38:55.194Z,87.62
2022-09-27T23:41:23.526Z,88.90
2022-09-27T23:43:52.699Z,89.01
2022-09-27T23:46:20.877Z,89.84
2022-09-27T23:48:49.106Z,89.31
2022-09-27T23:51:17.273Z,89.19
2022-09-27T23:53:45.415Z,88.99
2022-09-27T23:56:15.754Z,89.10
2022-09-27T23:58:45.839Z,88.47
